Terminal Aerodrome Forecast
Issued by NWS

Home | Current Version | Previous Version | Text Only | Print | Product List | Glossary On
Versions: 1 2 3 4 5 6 7 8 9 10 11 12 13
000
FTUS45 KABQ 222347
TAFFMN
TAF
KFMN 222347Z 2300/2324 22018G28KT P6SM SCT090
     FM230100 19012KT P6SM BKN090
     FM230600 13008KT P6SM VCSH OVC090
     FM231800 18010G18KT P6SM VCTS BKN060CB
     FM232100 21015G25KT P6SM SCT080=

USA.gov is the U.S. government's official web portal to all federal, state and local government web resources and services.